Time;durP1;ratioP1;P1;durP2;ratioP2;P2;SDS_P1;SDS_P2;PMS_P1;PMS_P2;Temp;Humidity;BMP_temperature;BMP_pressure;BME280_temperature;BME280_humidity;BME280_pressure;Samples;Min_cycle;Max_cycle;Signal;HPM_P1;HPM_P2
2020/12/17 16:08:29;;;;;;;2.25;1.40;;;;;;;23.86;40.21;101953.28;4982423;22;813520;-54
2020/12/17 16:10:54;;;;;;;4.97;1.60;;;;;;;23.87;39.73;101955.91;4998545;28;96786;-54
2020/12/17 16:13:20;;;;;;;3.35;1.50;;;;;;;23.90;39.80;101962.94;4996640;28;109939;-54
2020/12/17 16:15:45;;;;;;;3.40;1.52;;;;;;;23.93;39.34;101965.53;4999149;28;114232;-54
2020/12/17 16:18:11;;;;;;;2.95;1.50;;;;;;;23.95;39.19;101963.69;4998245;28;97281;-54
2020/12/17 16:20:36;;;;;;;2.08;1.17;;;;;;;23.99;39.10;101967.16;4997358;28;110145;-54
2020/12/17 16:23:02;;;;;;;5.15;1.38;;;;;;;24.00;38.81;101967.13;4976707;28;109991;-54
2020/12/17 16:25:28;;;;;;;4.53;1.20;;;;;;;24.02;38.57;101967.97;4996805;28;97471;-55
2020/12/17 16:27:55;;;;;;;2.38;1.20;;;;;;;24.03;38.79;101968.81;4996508;28;97332;-54
2020/12/17 16:30:20;;;;;;;2.58;1.20;;;;;;;24.05;38.47;101967.88;5009867;28;96938;-54
2020/12/17 16:32:46;;;;;;;3.78;1.15;;;;;;;24.06;38.31;101976.75;4996764;28;99935;-54
2020/12/17 16:35:12;;;;;;;3.05;1.40;;;;;;;24.05;38.45;101967.88;4998233;28;97268;-54
2020/12/17 16:37:37;;;;;;;2.45;1.02;;;;;;;24.08;38.54;101973.16;4978497;28;97450;-54
2020/12/17 16:40:03;;;;;;;2.05;1.10;;;;;;;24.07;38.50;101974.03;4997348;28;96867;-54
2020/12/17 16:42:29;;;;;;;2.00;1.20;;;;;;;24.09;38.17;101974.88;4996659;28;96711;-54
2020/12/17 16:44:54;;;;;;;2.88;1.25;;;;;;;24.10;38.13;101983.75;4996812;28;126776;-56
2020/12/17 16:47:20;;;;;;;2.00;0.98;;;;;;;24.10;38.03;101983.75;4995819;28;124582;-54
2020/12/17 16:49:45;;;;;;;3.55;1.33;;;;;;;24.10;38.15;101984.63;4997073;28;96777;-54
2020/12/17 16:52:10;;;;;;;1.83;1.13;;;;;;;24.11;38.19;101986.38;4996721;28;96674;-54
2020/12/17 16:54:36;;;;;;;2.50;1.30;;;;;;;24.11;38.08;101986.38;4995618;28;126867;-54
2020/12/17 16:57:02;;;;;;;2.78;1.20;;;;;;;24.13;38.18;101989.91;4995584;28;97214;-54
2020/12/17 16:59:28;;;;;;;2.10;1.10;;;;;;;24.13;38.14;101995.22;4986453;28;97258;-54
2020/12/17 17:02:00;;;;;;;1.98;1.15;;;;;;;24.13;38.15;101989.91;4994593;28;96629;-54
2020/12/17 17:04:27;;;;;;;2.75;1.30;;;;;;;24.15;37.89;101984.50;4994029;28;97449;-55
2020/12/17 17:06:52;;;;;;;2.40;1.15;;;;;;;24.16;38.09;101991.59;4996339;28;97244;-54
2020/12/17 17:09:17;;;;;;;2.50;1.20;;;;;;;24.16;37.72;101990.72;4993497;28;96710;-54
2020/12/17 17:11:44;;;;;;;2.13;1.00;;;;;;;24.17;37.87;101992.47;4987704;28;97272;-54
2020/12/17 17:14:10;;;;;;;2.28;1.17;;;;;;;24.17;37.95;101989.78;4991452;28;116861;-54
2020/12/17 17:16:35;;;;;;;2.08;1.33;;;;;;;24.18;37.83;101987.09;4992639;28;120884;-54
2020/12/17 17:19:00;;;;;;;3.03;1.08;;;;;;;24.18;37.78;101989.75;4994641;28;96746;-54
2020/12/17 17:21:26;;;;;;;1.73;1.00;;;;;;;24.18;37.52;101999.56;4994914;28;109930;-54
2020/12/17 17:23:51;;;;;;;1.75;1.00;;;;;;;24.18;37.87;101996.88;4992871;28;127991;-55
2020/12/17 17:26:17;;;;;;;6.90;1.63;;;;;;;24.17;37.90;101993.34;4982870;28;97330;-55
2020/12/17 17:28:42;;;;;;;2.75;1.23;;;;;;;24.17;37.55;101988.03;4982009;28;109943;-53
2020/12/17 17:31:12;;;;;;;3.88;1.10;;;;;;;24.18;37.68;101992.41;4992152;28;111072;-48
2020/12/17 17:33:38;;;;;;;3.83;1.17;;;;;;;24.16;37.78;101991.59;4993238;28;97366;-47
2020/12/17 17:36:04;;;;;;;2.28;1.38;;;;;;;24.14;37.82;102004.97;4990989;28;97313;-48
2020/12/17 17:38:29;;;;;;;2.53;1.33;;;;;;;24.13;37.72;102002.31;4991629;28;98921;-48
2020/12/17 17:40:54;;;;;;;3.95;2.00;;;;;;;24.11;37.54;102012.16;4995610;28;96768;-48
2020/12/17 17:43:20;;;;;;;3.75;1.20;;;;;;;24.10;37.39;102008.63;4991229;28;126842;-48
2020/12/17 17:45:46;;;;;;;2.42;1.27;;;;;;;24.09;37.48;102012.19;4987397;28;126769;-47
2020/12/17 17:48:11;;;;;;;4.47;1.70;;;;;;;24.10;37.45;102010.38;4994979;28;96867;-48
2020/12/17 17:50:37;;;;;;;2.40;1.42;;;;;;;24.09;37.65;102012.19;4995839;28;96773;-48
2020/12/17 17:53:02;;;;;;;2.80;1.00;;;;;;;24.08;37.29;102010.47;4990542;28;124360;-48
2020/12/17 17:55:28;;;;;;;3.55;1.30;;;;;;;24.09;37.48;102006.84;4993510;28;112544;-53
2020/12/17 17:57:53;;;;;;;2.17;1.00;;;;;;;24.10;37.67;102003.28;4993699;28;110139;-48
2020/12/17 18:00:20;;;;;;;3.13;1.02;;;;;;;24.12;37.45;102011.25;4996511;28;96821;-48
2020/12/17 18:02:45;;;;;;;3.05;1.20;;;;;;;24.13;37.26;102013.88;4993251;28;100514;-48
2020/12/17 18:05:11;;;;;;;3.50;1.05;;;;;;;24.13;37.54;102013.88;4994883;28;126501;-48
2020/12/17 18:07:37;;;;;;;4.15;1.17;;;;;;;24.13;37.24;102008.56;4994241;28;100561;-48
2020/12/17 18:10:03;;;;;;;3.08;2.33;;;;;;;24.13;37.21;102016.56;4986809;28;96775;-48
2020/12/17 18:12:29;;;;;;;2.45;1.90;;;;;;;24.12;37.31;102014.78;4992375;28;101510;-48
2020/12/17 18:14:54;;;;;;;12.57;1.42;;;;;;;24.14;37.56;102020.94;4984814;28;126330;-48
2020/12/17 18:17:20;;;;;;;2.30;1.10;;;;;;;24.12;37.58;102011.25;4995416;28;96745;-48
2020/12/17 18:19:45;;;;;;;3.53;1.00;;;;;;;24.13;37.44;102023.66;4995558;28;109906;-48
2020/12/17 18:22:10;;;;;;;3.88;1.00;;;;;;;24.12;37.16;102027.25;4995318;28;97589;-48
2020/12/17 18:24:36;;;;;;;2.70;1.15;;;;;;;24.11;37.52;102023.69;4991192;28;98414;-48
2020/12/17 18:27:01;;;;;;;2.75;1.20;;;;;;;24.11;37.22;102026.34;4988585;28;99729;-48
2020/12/17 18:29:28;;;;;;;2.72;1.10;;;;;;;24.11;37.46;102021.00;4993772;28;97725;-48
2020/12/17 18:31:54;;;;;;;2.97;1.45;;;;;;;24.11;37.25;102029.00;4987466;28;98681;-51
2020/12/17 18:34:19;;;;;;;3.47;1.52;;;;;;;24.12;37.57;102025.44;4990096;28;97185;-48
2020/12/17 18:36:45;;;;;;;3.03;1.35;;;;;;;24.14;37.58;102023.63;4994771;28;96908;-48
2020/12/17 18:39:11;;;;;;;2.85;1.17;;;;;;;24.18;37.63;102032.41;4987479;28;97181;-48
2020/12/17 18:41:36;;;;;;;2.63;1.75;;;;;;;24.23;37.46;102034.97;4988485;28;117890;-59
2020/12/17 18:44:01;;;;;;;4.57;1.13;;;;;;;24.26;37.68;102041.09;4993109;28;98379;-50
2020/12/17 18:46:27;;;;;;;4.50;1.75;;;;;;;24.28;37.25;102033.94;4992539;28;96879;-50
2020/12/17 18:48:52;;;;;;;4.85;1.50;;;;;;;24.31;37.26;102049.84;4995481;28;96715;-50
2020/12/17 18:51:27;;;;;;;4.13;1.38;;;;;;;24.34;37.56;102051.56;4989041;28;126724;-50
2020/12/17 18:53:52;;;;;;;2.88;1.50;;;;;;;24.38;37.53;102044.34;4988722;28;97565;-50
2020/12/17 18:56:19;;;;;;;5.63;2.13;;;;;;;24.40;37.36;102042.50;4992431;28;110662;-50
2020/12/17 18:58:44;;;;;;;5.70;1.30;;;;;;;24.42;37.33;102040.69;4992344;28;97305;-50
2020/12/17 19:01:11;;;;;;;2.83;1.20;;;;;;;24.44;37.19;102044.19;4992117;28;96860;-50
2020/12/17 19:03:37;;;;;;;4.80;1.10;;;;;;;24.46;37.39;102042.38;4990754;28;97335;-50
2020/12/17 19:06:02;;;;;;;6.53;1.30;;;;;;;24.47;37.18;102049.44;4994816;28;97616;-50
2020/12/17 19:08:28;;;;;;;2.22;1.50;;;;;;;24.49;37.22;102052.94;4992868;28;97565;-50
2020/12/17 19:10:54;;;;;;;2.58;2.03;;;;;;;24.49;36.88;102051.16;4990063;28;126694;-50
2020/12/17 19:13:20;;;;;;;2.60;1.20;;;;;;;24.51;37.20;102060.00;4991417;28;123024;-50
2020/12/17 19:15:45;;;;;;;1.52;0.90;;;;;;;24.53;37.01;102060.00;4990261;28;97095;-50
2020/12/17 19:18:11;;;;;;;2.38;1.55;;;;;;;24.54;37.09;102059.06;4987006;28;96799;-50
2020/12/17 19:20:36;;;;;;;3.35;1.50;;;;;;;24.56;36.96;102059.00;4990886;28;97574;-50
2020/12/17 19:23:01;;;;;;;3.67;1.50;;;;;;;24.55;37.03;102047.47;4994548;28;98253;-50
2020/12/17 19:25:27;;;;;;;1.83;1.10;;;;;;;24.57;37.00;102053.66;4991381;28;112948;-50
2020/12/17 19:27:52;;;;;;;2.50;1.08;;;;;;;24.57;36.71;102050.97;4992426;28;112694;-50
2020/12/17 19:30:18;;;;;;;1.90;1.73;;;;;;;24.58;37.03;102051.84;4992196;28;97634;-50
2020/12/17 19:32:43;;;;;;;3.95;1.20;;;;;;;24.58;37.08;102050.06;4989388;28;112075;-51
2020/12/17 19:35:10;;;;;;;2.75;1.20;;;;;;;24.59;36.86;102048.28;4988475;28;98056;-50
2020/12/17 19:37:35;;;;;;;1.77;0.95;;;;;;;24.58;36.90;102052.75;4993771;28;97684;-50
2020/12/17 19:40:04;;;;;;;2.45;1.00;;;;;;;24.59;37.00;102048.28;4993966;28;126605;-50
2020/12/17 19:42:30;;;;;;;2.90;1.05;;;;;;;24.59;36.66;102050.94;4991033;28;126555;-51
2020/12/17 19:44:55;;;;;;;2.17;0.90;;;;;;;24.57;36.72;102050.97;4992595;28;97478;-50
2020/12/17 19:47:21;;;;;;;2.08;1.20;;;;;;;24.58;36.76;102050.06;4994726;28;112654;-50
2020/12/17 19:49:46;;;;;;;2.10;1.00;;;;;;;24.58;37.00;102051.84;4995542;28;128218;-51
2020/12/17 19:52:12;;;;;;;2.25;0.88;;;;;;;24.58;36.55;102054.50;4996621;28;97855;-50
2020/12/17 19:54:37;;;;;;;2.05;0.80;;;;;;;24.58;36.86;102055.41;4995605;28;111882;-51
2020/12/17 19:57:04;;;;;;;2.65;1.25;;;;;;;24.58;36.92;102055.41;4996199;28;111498;-50
2020/12/17 19:59:30;;;;;;;2.17;1.02;;;;;;;24.58;36.96;102054.50;4994935;28;97676;-53
2020/12/17 20:01:55;;;;;;;1.63;0.95;;;;;;;24.58;36.87;102065.19;4995017;28;97291;-50
2020/12/17 20:04:21;;;;;;;3.00;0.85;;;;;;;24.57;36.94;102072.31;4995943;28;113087;-51
2020/12/17 20:06:47;;;;;;;2.15;1.23;;;;;;;24.58;36.54;102065.19;4996455;28;97350;-50
2020/12/17 20:09:13;;;;;;;2.42;0.98;;;;;;;24.58;36.41;102071.41;4996667;28;97442;-50
2020/12/17 20:11:39;;;;;;;1.65;0.90;;;;;;;24.58;36.70;102067.84;4995878;28;97327;-50
2020/12/17 20:14:05;;;;;;;1.92;0.73;;;;;;;24.57;36.58;102074.13;4996963;28;98224;-51
2020/12/17 20:16:34;;;;;;;3.38;1.00;;;;;;;24.57;36.63;102068.78;4995075;28;97173;-51
2020/12/17 20:18:59;;;;;;;1.60;0.82;;;;;;;24.58;36.75;102081.19;4994431;28;96741;-51
2020/12/17 20:21:25;;;;;;;1.48;0.98;;;;;;;24.57;36.53;102076.78;4994738;28;97242;-50
2020/12/17 20:23:52;;;;;;;2.65;0.93;;;;;;;24.56;36.79;102078.56;4997230;28;97222;-50
2020/12/17 20:26:19;;;;;;;1.70;0.93;;;;;;;24.56;36.37;102075.03;4996452;28;97132;-51
2020/12/17 20:28:44;;;;;;;1.42;0.80;;;;;;;24.56;36.82;102077.69;4996409;28;96671;-50
2020/12/17 20:31:11;;;;;;;1.73;0.98;;;;;;;24.56;36.44;102078.56;4995918;28;98115;-52
2020/12/17 20:33:39;;;;;;;2.50;0.70;;;;;;;24.55;36.74;102079.50;4997051;28;111953;-54
2020/12/17 20:36:04;;;;;;;2.20;0.80;;;;;;;24.55;36.59;102076.81;4997865;28;96764;-57
2020/12/17 20:38:30;;;;;;;1.08;0.68;;;;;;;24.56;36.59;102077.69;4996164;28;97511;-55
2020/12/17 20:40:55;;;;;;;1.73;1.00;;;;;;;24.56;36.34;102075.88;4996262;28;121085;-54
2020/12/17 20:43:22;;;;;;;2.03;0.80;;;;;;;24.58;36.69;102071.41;4996767;28;109383;-58
2020/12/17 20:45:48;;;;;;;2.47;1.05;;;;;;;24.61;36.89;102078.44;4997131;28;97381;-54
2020/12/17 20:48:13;;;;;;;2.25;0.85;;;;;;;24.63;36.79;102080.13;4994590;28;128003;-54
2020/12/17 20:50:38;;;;;;;2.10;0.98;;;;;;;24.65;36.81;102077.44;4995504;28;97282;-55
2020/12/17 20:53:07;;;;;;;1.85;1.30;;;;;;;24.67;36.38;102079.16;4994309;28;97116;-54
2020/12/17 20:55:32;;;;;;;2.08;1.20;;;;;;;24.68;36.73;102082.69;4996588;28;111480;-61
2020/12/17 20:57:58;;;;;;;2.38;0.70;;;;;;;24.68;36.40;102080.91;4994503;28;119583;-54
2020/12/17 21:00:25;;;;;;;1.98;1.10;;;;;;;24.69;36.37;102087.13;5007756;28;97222;-54
2020/12/17 21:02:52;;;;;;;2.05;0.82;;;;;;;24.69;36.72;102084.47;4952436;28;96863;-53
2020/12/17 21:05:17;;;;;;;1.98;1.30;;;;;;;24.68;36.23;102080.03;4992274;28;112606;-53
2020/12/17 21:07:43;;;;;;;1.13;0.90;;;;;;;24.66;36.58;102081.88;4986181;28;127418;-53
2020/12/17 21:10:08;;;;;;;2.78;1.15;;;;;;;24.65;36.36;102085.44;4990586;28;98168;-53
2020/12/17 21:12:39;;;;;;;3.25;1.05;;;;;;;24.63;36.65;102082.81;4989514;28;103473;-53
2020/12/17 21:15:06;;;;;;;2.97;0.93;;;;;;;24.61;36.37;102095.31;4958124;28;97097;-53
2020/12/17 21:17:33;;;;;;;1.55;1.13;;;;;;;24.59;36.50;102090.94;4992264;28;97545;-53
2020/12/17 21:19:58;;;;;;;1.77;1.30;;;;;;;24.59;36.43;102096.28;4992442;28;97162;-53
2020/12/17 21:22:24;;;;;;;1.92;1.10;;;;;;;24.56;36.33;102094.56;4992141;28;111788;-53
2020/12/17 21:24:49;;;;;;;1.35;0.95;;;;;;;24.55;36.53;102091.97;4993250;28;97314;-53
2020/12/17 21:27:15;;;;;;;2.35;1.10;;;;;;;24.55;36.34;102099.97;4988590;28;109550;-53
2020/12/17 21:29:40;;;;;;;2.13;1.10;;;;;;;24.53;36.70;102094.66;4989608;28;97774;-53
2020/12/17 21:32:06;;;;;;;2.78;1.23;;;;;;;24.53;36.53;102102.66;4991377;28;104312;-53
2020/12/17 21:34:31;;;;;;;1.60;1.20;;;;;;;24.51;36.53;102100.00;4991561;28;97101;-53
2020/12/17 21:36:57;;;;;;;1.30;1.08;;;;;;;24.50;36.42;102090.22;4991625;28;97636;-53
2020/12/17 21:39:22;;;;;;;1.30;0.80;;;;;;;24.50;36.18;102086.69;4989498;28;97190;-53
2020/12/17 21:41:48;;;;;;;1.52;0.80;;;;;;;24.50;36.34;102086.69;4996358;28;96792;-53
2020/12/17 21:44:13;;;;;;;1.90;0.88;;;;;;;24.49;36.46;102090.25;4992931;28;96722;-53
2020/12/17 21:46:42;;;;;;;1.55;1.00;;;;;;;24.48;36.61;102089.41;4986536;28;114283;-53
2020/12/17 21:49:07;;;;;;;1.38;0.80;;;;;;;24.48;36.21;102091.19;4993968;28;97464;-53
2020/12/17 21:51:33;;;;;;;2.28;1.00;;;;;;;24.47;36.42;102087.66;4988205;28;96857;-53
2020/12/17 21:53:58;;;;;;;1.42;0.80;;;;;;;24.47;36.23;102090.34;4991000;28;97922;-53
2020/12/17 21:56:24;;;;;;;1.23;0.90;;;;;;;24.47;36.44;102092.09;4982287;28;116710;-53
2020/12/17 21:58:49;;;;;;;1.98;0.90;;;;;;;24.47;36.63;102090.34;4988339;28;97233;-52
2020/12/17 22:01:15;;;;;;;1.48;0.80;;;;;;;24.48;36.34;102088.53;4991445;28;96837;-52
2020/12/17 22:03:42;;;;;;;1.30;0.90;;;;;;;24.46;36.30;102095.69;4993227;28;102809;-52
2020/12/17 22:06:11;;;;;;;1.73;0.93;;;;;;;24.46;36.17;102096.56;4990496;28;98368;-53
2020/12/17 22:08:37;;;;;;;1.40;0.93;;;;;;;24.47;36.48;102098.34;4989743;28;97499;-53
2020/12/17 22:11:03;;;;;;;1.05;0.80;;;;;;;24.45;36.22;102100.13;4991927;28;110732;-53
2020/12/17 22:13:28;;;;;;;1.55;1.42;;;;;;;24.44;36.58;102094.88;4994176;28;97824;-54
2020/12/17 22:15:54;;;;;;;1.25;1.00;;;;;;;24.45;36.18;102093.94;4989823;28;126938;-53
2020/12/17 22:18:19;;;;;;;1.48;0.93;;;;;;;24.45;36.17;102099.28;4988890;28;126684;-53
2020/12/17 22:20:45;;;;;;;1.50;0.95;;;;;;;24.45;36.19;102099.28;4989769;28;111756;-53
2020/12/17 22:23:10;;;;;;;1.33;0.80;;;;;;;24.44;36.45;102103.75;4994706;28;111712;-53
2020/12/17 22:25:36;;;;;;;1.27;0.80;;;;;;;24.44;36.62;102094.88;4985902;28;114095;-53
2020/12/17 22:28:01;;;;;;;1.77;0.80;;;;;;;24.44;36.39;102100.22;4989168;28;126698;-53
2020/12/17 22:30:27;;;;;;;1.30;0.70;;;;;;;24.42;36.48;102100.25;4994699;28;112011;-53
2020/12/17 22:32:52;;;;;;;1.80;0.85;;;;;;;24.43;36.26;102103.78;4994047;28;111672;-53
2020/12/17 22:35:18;;;;;;;1.63;0.98;;;;;;;24.42;36.57;102102.91;4987509;28;126832;-58
2020/12/17 22:37:43;;;;;;;1.67;0.90;;;;;;;24.42;36.36;102110.91;4988622;28;126555;-58
2020/12/17 22:40:09;;;;;;;2.80;2.60;;;;;;;24.43;36.54;102109.09;4992623;28;96794;-53
2020/12/17 22:42:34;;;;;;;1.65;1.42;;;;;;;24.44;36.14;102114.41;4989189;28;112832;-53
2020/12/17 22:45:00;;;;;;;1.80;0.93;;;;;;;24.44;36.39;102101.06;4989092;28;105558;-53
2020/12/17 22:47:25;;;;;;;2.58;1.60;;;;;;;24.45;36.43;102112.59;4987583;28;105562;-53
2020/12/17 22:49:51;;;;;;;1.40;0.95;;;;;;;24.45;36.49;102112.59;4990831;28;97966;-53
2020/12/17 22:52:16;;;;;;;2.17;1.10;;;;;;;24.45;36.16;102110.81;4992641;28;111707;-53
2020/12/17 22:54:42;;;;;;;1.98;0.90;;;;;;;24.44;36.29;102109.06;4992707;28;107900;-53
2020/12/17 22:57:07;;;;;;;2.15;0.80;;;;;;;24.44;36.33;102101.06;4997074;28;97080;-53
2020/12/17 22:59:33;;;;;;;1.65;0.90;;;;;;;24.43;36.31;102099.31;4995233;28;96925;-52
2020/12/17 23:01:58;;;;;;;1.45;0.90;;;;;;;24.43;36.31;102093.09;4995835;28;105689;-53
2020/12/17 23:04:24;;;;;;;1.92;1.83;;;;;;;24.42;36.17;102092.25;4986183;28;97556;-53
2020/12/17 23:06:49;;;;;;;1.65;0.98;;;;;;;24.43;36.29;102093.09;4994587;28;126572;-53
2020/12/17 23:09:16;;;;;;;1.73;0.80;;;;;;;24.42;36.42;102096.69;4990429;28;97248;-53
2020/12/17 23:11:45;;;;;;;2.20;1.15;;;;;;;24.41;36.05;102095.81;4991045;28;96835;-53
2020/12/17 23:14:11;;;;;;;2.20;1.00;;;;;;;24.41;36.09;102093.13;4994251;28;97450;-53
2020/12/17 23:16:36;;;;;;;1.27;1.00;;;;;;;24.40;36.12;102088.72;4992592;28;126245;-52
2020/12/17 23:19:09;;;;;;;1.65;1.55;;;;;;;24.39;36.41;102086.09;4991792;28;111816;-52
2020/12/17 23:21:36;;;;;;;2.30;1.00;;;;;;;24.40;36.26;102090.50;4998003;28;96727;-53
2020/12/17 23:24:01;;;;;;;1.95;1.77;;;;;;;24.39;36.24;102086.97;4992216;28;100438;-53
2020/12/17 23:26:27;;;;;;;1.63;1.52;;;;;;;24.38;36.31;102087.88;4993254;28;111567;-52
2020/12/17 23:28:53;;;;;;;2.30;1.20;;;;;;;24.38;36.00;102082.53;4994600;28;99773;-52
2020/12/17 23:31:19;;;;;;;1.10;0.88;;;;;;;24.38;36.06;102085.22;4996695;28;96873;-52
2020/12/17 23:33:50;;;;;;;1.45;0.90;;;;;;;24.35;36.14;102085.31;4991776;28;103882;-52
2020/12/17 23:36:18;;;;;;;2.33;1.20;;;;;;;24.36;36.34;102081.72;4995777;28;97046;-53
2020/12/17 23:38:45;;;;;;;1.92;0.80;;;;;;;24.36;36.20;102071.03;4994925;28;96789;-53
2020/12/17 23:41:11;;;;;;;2.38;1.00;;;;;;;24.36;36.02;102081.72;4990966;28;111695;-53
2020/12/17 23:43:37;;;;;;;1.23;1.10;;;;;;;24.35;36.12;102076.41;4993292;28;97535;-51
2020/12/17 23:46:03;;;;;;;1.83;1.58;;;;;;;24.37;36.35;102080.81;4992936;28;122180;-51
2020/12/17 23:48:28;;;;;;;1.15;0.90;;;;;;;24.37;36.23;102078.16;4993801;28;96778;-51
2020/12/17 23:50:53;;;;;;;1.33;1.10;;;;;;;24.36;36.21;102073.72;4995365;28;111706;-50
2020/12/17 23:53:19;;;;;;;1.88;1.70;;;;;;;24.36;35.96;102080.84;4994345;28;126907;-51
2020/12/17 23:55:45;;;;;;;0.88;0.63;;;;;;;24.37;36.25;102091.47;4996877;28;97204;-50
2020/12/17 23:58:10;;;;;;;1.27;1.13;;;;;;;24.36;36.26;102087.03;4996466;28;96661;-51
